Time;durP1;ratioP1;P1;durP2;ratioP2;P2;SDS_P1;SDS_P2;PMS_P1;PMS_P2;Temp;Humidity;BMP_temperature;BMP_pressure;BME280_temperature;BME280_humidity;BME280_pressure;Samples;Min_cycle;Max_cycle;Signal;HPM_P1;HPM_P2
2023/04/11 00:00:51;;;;;;;7.67;5.33;;;6.00;99.80;;;;;;5113844;28;20304;-77
2023/04/11 00:03:18;;;;;;;6.83;5.50;;;5.90;99.90;;;;;;5113932;28;20181;-78
2023/04/11 00:05:45;;;;;;;6.47;5.50;;;5.90;99.90;;;;;;5095824;28;20228;-76
2023/04/11 00:08:11;;;;;;;6.13;5.53;;;5.90;99.90;;;;;;5113987;28;20644;-78
2023/04/11 00:10:36;;;;;;;5.63;5.03;;;5.80;99.90;;;;;;5113478;28;20195;-81
2023/04/11 00:13:02;;;;;;;6.10;5.50;;;5.70;99.90;;;;;;5113653;28;20173;-80
2023/04/11 00:15:28;;;;;;;6.50;5.77;;;5.80;99.90;;;;;;5113515;28;20302;-79
2023/04/11 00:17:56;;;;;;;5.93;5.33;;;5.80;99.90;;;;;;5113662;28;20619;-79
2023/04/11 00:20:22;;;;;;;6.30;5.57;;;5.70;99.90;;;;;;5113172;28;20642;-82
2023/04/11 00:22:48;;;;;;;7.47;5.53;;;5.70;99.90;;;;;;5113529;28;20204;-80
2023/04/11 00:25:14;;;;;;;7.30;5.43;;;5.70;99.90;;;;;;5113730;28;20175;-79
2023/04/11 00:27:40;;;;;;;6.07;5.23;;;5.70;99.90;;;;;;5113452;28;20217;-80
2023/04/11 00:30:06;;;;;;;6.87;5.27;;;5.70;99.90;;;;;;5112951;28;20175;-80
2023/04/11 00:32:32;;;;;;;5.70;5.07;;;5.70;99.90;;;;;;5114035;28;20183;-78
2023/04/11 00:34:58;;;;;;;9.23;5.97;;;5.70;99.90;;;;;;5114941;28;20541;-79
2023/04/11 00:37:24;;;;;;;7.50;5.80;;;5.70;99.90;;;;;;5094884;28;20219;-78
2023/04/11 00:39:51;;;;;;;7.37;5.57;;;5.70;99.90;;;;;;5113232;28;20174;-79
2023/04/11 00:42:18;;;;;;;6.90;4.90;;;5.70;99.90;;;;;;5113218;28;20206;-82
2023/04/11 00:44:44;;;;;;;5.97;5.37;;;5.70;99.90;;;;;;5115159;28;20625;-81
2023/04/11 00:47:10;;;;;;;5.20;4.70;;;5.80;99.90;;;;;;5113358;28;20175;-78
2023/04/11 00:49:36;;;;;;;5.90;5.27;;;5.80;99.90;;;;;;5094558;28;20179;-78
2023/04/11 00:52:03;;;;;;;5.40;4.63;;;5.80;99.90;;;;;;5113195;28;20170;-79
2023/04/11 00:54:30;;;;;;;5.73;5.13;;;5.80;99.90;;;;;;5094574;28;20185;-77
2023/04/11 00:57:03;;;;;;;5.87;5.27;;;5.80;99.90;;;;;;5112827;28;20627;-78
2023/04/11 00:59:30;;;;;;;5.87;4.73;;;5.80;99.90;;;;;;5112553;28;20166;-78
2023/04/11 01:01:57;;;;;;;5.40;4.80;;;5.80;99.90;;;;;;5112863;28;20708;-78
2023/04/11 01:04:24;;;;;;;5.17;4.70;;;5.80;99.90;;;;;;5112978;28;20166;-75
2023/04/11 01:06:54;;;;;;;5.07;4.53;;;5.70;99.90;;;;;;5112843;28;20204;-78
2023/04/11 01:09:23;;;;;;;8.23;5.27;;;5.80;99.90;;;;;;5093994;28;20174;-76
2023/04/11 01:11:49;;;;;;;5.83;5.20;;;5.70;99.90;;;;;;5112289;28;20178;-76
2023/04/11 01:14:17;;;;;;;5.33;4.77;;;5.70;99.90;;;;;;5112298;28;20758;-76
2023/04/11 01:16:45;;;;;;;6.00;5.40;;;5.70;99.90;;;;;;5112540;28;20177;-79
2023/04/11 01:19:18;;;;;;;6.87;5.00;;;5.70;99.90;;;;;;5112601;28;20182;-78
2023/04/11 01:21:54;;;;;;;7.50;5.10;;;5.70;99.90;;;;;;5112190;28;20680;-80
2023/04/11 01:24:20;;;;;;;7.97;5.80;;;5.70;99.90;;;;;;5112564;28;20562;-78
2023/04/11 01:26:46;;;;;;;6.60;5.27;;;5.70;99.90;;;;;;5112500;28;20173;-80
2023/04/11 01:29:12;;;;;;;5.80;5.13;;;5.60;99.90;;;;;;5112164;28;20589;-79
2023/04/11 01:31:37;;;;;;;6.27;5.57;;;5.50;99.90;;;;;;5112256;28;20170;-80
2023/04/11 01:34:04;;;;;;;7.93;5.40;;;5.40;99.90;;;;;;5112195;28;20261;-80
2023/04/11 01:36:31;;;;;;;5.67;5.07;;;5.30;99.90;;;;;;5112498;28;20836;-80
2023/04/11 01:38:57;;;;;;;5.83;4.80;;;5.30;99.90;;;;;;5112136;28;21003;-81
2023/04/11 01:41:25;;;;;;;5.90;4.97;;;5.20;99.90;;;;;;5112055;28;20677;-82
2023/04/11 01:43:51;;;;;;;6.57;5.13;;;5.20;99.90;;;;;;5112451;28;20178;-79
2023/04/11 01:46:17;;;;;;;6.87;5.53;;;5.30;99.90;;;;;;5112246;28;20709;-83
2023/04/11 01:48:44;;;;;;;6.93;5.63;;;5.30;99.90;;;;;;5111992;28;20170;-78
2023/04/11 01:51:10;;;;;;;5.67;5.00;;;5.30;99.90;;;;;;5113266;28;20168;-78
2023/04/11 01:53:36;;;;;;;8.60;5.13;;;5.30;99.90;;;;;;5116486;28;20706;-81
2023/04/11 01:56:02;;;;;;;6.07;5.40;;;5.20;99.90;;;;;;5117224;28;20175;-76
2023/04/11 01:58:28;;;;;;;5.73;4.77;;;5.20;99.90;;;;;;5116482;28;20169;-77
2023/04/11 02:00:54;;;;;;;6.07;5.30;;;5.30;99.90;;;;;;5116246;28;20235;-80
2023/04/11 02:03:20;;;;;;;5.73;5.20;;;5.40;99.90;;;;;;5116603;28;20630;-77
2023/04/11 02:05:45;;;;;;;5.60;4.57;;;5.40;99.90;;;;;;5116572;28;20273;-79
2023/04/11 02:08:11;;;;;;;6.73;4.67;;;5.40;99.90;;;;;;5116105;28;20774;-77
2023/04/11 02:10:37;;;;;;;6.53;4.97;;;5.40;99.90;;;;;;5116067;28;20166;-78
2023/04/11 02:13:03;;;;;;;6.47;4.73;;;5.40;99.90;;;;;;5116861;28;20166;-77
2023/04/11 02:15:29;;;;;;;5.80;5.20;;;5.50;99.90;;;;;;5116157;28;20576;-80
2023/04/11 02:17:55;;;;;;;5.73;5.13;;;5.50;99.90;;;;;;5116116;28;20266;-76
2023/04/11 02:20:22;;;;;;;5.27;4.77;;;5.40;99.90;;;;;;5115670;28;20251;-76
2023/04/11 02:22:48;;;;;;;5.77;5.20;;;5.40;99.90;;;;;;5115497;28;20349;-77
2023/04/11 02:25:13;;;;;;;7.13;5.13;;;5.50;99.90;;;;;;5080640;28;20185;-77
2023/04/11 02:27:39;;;;;;;5.73;5.10;;;5.50;99.90;;;;;;5115543;28;20169;-77
2023/04/11 02:30:06;;;;;;;5.70;5.07;;;5.60;99.90;;;;;;5115251;28;20170;-76
2023/04/11 02:32:36;;;;;;;5.97;4.90;;;5.60;99.90;;;;;;5115302;28;20182;-78
2023/04/11 02:35:03;;;;;;;5.77;4.63;;;5.60;99.90;;;;;;5115880;28;20599;-76
2023/04/11 02:37:30;;;;;;;5.70;5.20;;;5.60;99.90;;;;;;5115452;28;20174;-77
2023/04/11 02:39:57;;;;;;;7.17;5.50;;;5.50;99.90;;;;;;5115408;28;20254;-77
2023/04/11 02:42:22;;;;;;;5.37;4.87;;;5.50;99.90;;;;;;5115183;28;20218;-76
2023/04/11 02:44:48;;;;;;;8.13;5.07;;;5.40;99.90;;;;;;5115396;28;20249;-78
2023/04/11 02:47:14;;;;;;;6.97;5.27;;;5.40;99.90;;;;;;5115423;28;20199;-76
2023/04/11 02:49:42;;;;;;;7.13;5.40;;;5.40;99.90;;;;;;5115371;28;20190;-78
2023/04/11 02:52:08;;;;;;;5.57;5.07;;;5.40;99.90;;;;;;5115259;28;20210;-79
2023/04/11 02:54:34;;;;;;;8.43;5.10;;;5.30;99.90;;;;;;5115676;28;20198;-76
2023/04/11 02:57:01;;;;;;;5.27;4.57;;;5.10;99.90;;;;;;5116257;28;20237;-76
2023/04/11 02:59:26;;;;;;;5.47;4.87;;;5.20;99.90;;;;;;5115386;28;20170;-78
2023/04/11 03:01:59;;;;;;;5.20;4.70;;;5.20;99.90;;;;;;5114367;28;20701;-77
2023/04/11 03:04:25;;;;;;;5.20;4.80;;;5.30;99.90;;;;;;5114539;28;20637;-78
2023/04/11 03:06:51;;;;;;;5.87;5.10;;;5.30;99.90;;;;;;5115252;28;20179;-82
2023/04/11 03:09:17;;;;;;;5.53;4.77;;;5.30;99.90;;;;;;5115089;28;20168;-81
2023/04/11 03:11:43;;;;;;;5.27;4.77;;;5.30;99.90;;;;;;5114761;28;20652;-77
2023/04/11 03:14:09;;;;;;;7.57;5.53;;;5.40;99.90;;;;;;5114931;28;20245;-76
2023/04/11 03:16:35;;;;;;;9.57;5.10;;;5.40;99.90;;;;;;5114935;28;20577;-80
2023/04/11 03:19:00;;;;;;;5.80;5.20;;;5.40;99.90;;;;;;5114562;28;20693;-79
2023/04/11 03:21:26;;;;;;;6.93;5.33;;;5.40;99.90;;;;;;5115382;28;20227;-77
2023/04/11 03:23:52;;;;;;;6.20;4.97;;;5.40;99.90;;;;;;5114805;28;20165;-79
2023/04/11 03:26:18;;;;;;;5.30;4.73;;;5.40;99.90;;;;;;5114744;28;20174;-75
2023/04/11 03:28:44;;;;;;;6.77;5.50;;;5.40;99.90;;;;;;5114832;28;20180;-78
2023/04/11 03:31:11;;;;;;;5.20;4.70;;;5.40;99.90;;;;;;5114705;28;20616;-78
2023/04/11 03:33:37;;;;;;;5.90;5.30;;;5.50;99.90;;;;;;5114413;28;20498;-81
2023/04/11 03:36:04;;;;;;;8.07;5.50;;;5.60;99.90;;;;;;5114614;28;20185;-78
2023/04/11 03:38:30;;;;;;;7.87;5.70;;;5.50;99.90;;;;;;5114363;28;20178;-76
2023/04/11 03:40:56;;;;;;;6.43;5.13;;;5.40;99.90;;;;;;5114350;28;20614;-77
2023/04/11 03:43:21;;;;;;;6.87;5.53;;;5.40;99.90;;;;;;5114658;28;20177;-78
2023/04/11 03:45:47;;;;;;;7.53;5.50;;;5.50;99.90;;;;;;5114887;28;20177;-76
2023/04/11 03:48:13;;;;;;;7.30;5.50;;;5.50;99.90;;;;;;5114575;28;20170;-76
2023/04/11 03:50:39;;;;;;;9.17;5.80;;;5.50;99.90;;;;;;5114356;28;20166;-76
2023/04/11 03:53:04;;;;;;;7.40;5.70;;;5.60;99.90;;;;;;5114138;28;20177;-76
2023/04/11 03:55:30;;;;;;;7.73;5.60;;;5.70;99.90;;;;;;5114422;28;20188;-76
2023/04/11 03:57:56;;;;;;;8.70;5.37;;;5.60;99.90;;;;;;5114473;28;20652;-77
2023/04/11 04:00:22;;;;;;;5.47;4.97;;;5.70;99.90;;;;;;5095779;28;20212;-77
2023/04/11 04:02:47;;;;;;;8.20;5.70;;;5.60;99.90;;;;;;5114006;28;20258;-76
2023/04/11 04:05:13;;;;;;;7.43;5.73;;;5.50;99.90;;;;;;5114282;28;20600;-80
2023/04/11 04:07:39;;;;;;;8.07;6.60;;;5.50;99.90;;;;;;5096130;28;20189;-78
2023/04/11 04:10:05;;;;;;;9.60;6.43;;;5.50;99.90;;;;;;5113856;28;20524;-78
2023/04/11 04:12:31;;;;;;;7.63;5.93;;;5.50;99.90;;;;;;5114093;28;20657;-81
2023/04/11 04:14:57;;;;;;;10.60;5.93;;;5.60;99.90;;;;;;5094769;28;20237;-79
2023/04/11 04:17:23;;;;;;;7.23;6.33;;;5.50;99.90;;;;;;5113822;28;20169;-81
2023/04/11 04:19:49;;;;;;;7.37;5.50;;;5.60;99.90;;;;;;5095340;28;20701;-78
2023/04/11 04:22:16;;;;;;;10.47;5.47;;;5.60;99.90;;;;;;5113761;28;20195;-76
2023/04/11 04:24:45;;;;;;;7.40;5.53;;;5.70;99.90;;;;;;5113714;28;20491;-77
2023/04/11 04:27:16;;;;;;;8.30;5.17;;;5.70;99.90;;;;;;5097536;28;20217;-80
2023/04/11 04:29:46;;;;;;;6.70;5.33;;;5.70;99.90;;;;;;5113924;28;20156;-75
2023/04/11 04:32:13;;;;;;;6.20;5.60;;;5.70;99.90;;;;;;5113697;28;20170;-83
2023/04/11 04:34:48;;;;;;;7.10;5.77;;;5.60;99.90;;;;;;5114195;28;20593;-79
2023/04/11 04:37:21;;;;;;;7.10;5.53;;;5.60;99.90;;;;;;5116934;28;20173;-77
2023/04/11 04:39:54;;;;;;;6.60;5.80;;;5.50;99.90;;;;;;5114782;28;20185;-79
2023/04/11 04:42:25;;;;;;;7.30;6.40;;;5.50;99.90;;;;;;5115369;28;20217;-78
2023/04/11 04:44:52;;;;;;;9.33;6.60;;;5.50;99.90;;;;;;5113270;28;20257;-78
2023/04/11 04:47:18;;;;;;;8.20;6.13;;;5.50;99.90;;;;;;5113540;28;20174;-77
2023/04/11 04:49:45;;;;;;;8.77;5.73;;;5.50;99.90;;;;;;5113192;28;20179;-79
2023/04/11 04:52:12;;;;;;;7.87;6.10;;;5.50;99.90;;;;;;5113154;28;20169;-77
2023/04/11 04:54:38;;;;;;;8.33;6.30;;;5.60;99.90;;;;;;5112891;28;20223;-82
2023/04/11 04:57:05;;;;;;;9.00;6.03;;;5.50;99.90;;;;;;5094586;28;20645;-79
2023/04/11 04:59:31;;;;;;;8.20;6.60;;;5.50;99.90;;;;;;5112852;28;20631;-77
2023/04/11 05:01:56;;;;;;;8.27;6.27;;;5.60;99.90;;;;;;5112843;28;20205;-79
2023/04/11 05:04:22;;;;;;;10.00;6.97;;;5.50;99.90;;;;;;5112806;28;20625;-79
2023/04/11 05:06:48;;;;;;;10.77;6.50;;;5.50;99.90;;;;;;5113106;28;20168;-83
2023/04/11 05:09:15;;;;;;;10.33;6.47;;;5.50;99.90;;;;;;5112824;28;20176;-80
2023/04/11 05:11:40;;;;;;;9.77;7.47;;;5.60;99.90;;;;;;5113264;28;20174;-81
2023/04/11 05:14:06;;;;;;;9.50;7.40;;;5.60;99.90;;;;;;5112667;28;20268;-77
2023/04/11 05:16:32;;;;;;;11.80;6.87;;;5.50;99.90;;;;;;5113171;28;20170;-77
2023/04/11 05:18:58;;;;;;;13.13;8.27;;;5.70;99.90;;;;;;5113124;28;20182;-79
2023/04/11 05:21:23;;;;;;;7.63;6.63;;;5.70;99.90;;;;;;5094789;28;20206;-77
2023/04/11 05:23:49;;;;;;;10.07;7.80;;;5.80;99.90;;;;;;5112813;28;20555;-78
2023/04/11 05:26:15;;;;;;;12.00;8.40;;;5.80;99.90;;;;;;5112409;28;20174;-80
2023/04/11 05:28:41;;;;;;;13.90;8.83;;;5.80;99.90;;;;;;5112111;28;20173;-76
2023/04/11 05:31:08;;;;;;;13.00;8.80;;;5.90;99.90;;;;;;5112328;28;20690;-77
2023/04/11 05:33:37;;;;;;;14.73;9.00;;;6.00;99.90;;;;;;5112557;28;20671;-80
2023/04/11 05:36:03;;;;;;;13.33;8.60;;;6.10;99.90;;;;;;5112644;28;20588;-79
2023/04/11 05:38:28;;;;;;;11.00;8.00;;;6.10;99.90;;;;;;5112326;28;20204;-76
2023/04/11 05:40:54;;;;;;;11.43;8.00;;;6.20;99.90;;;;;;5112435;28;20208;-81
2023/04/11 05:43:20;;;;;;;15.73;8.47;;;6.30;99.90;;;;;;5112392;28;20170;-76
2023/04/11 05:45:49;;;;;;;10.67;8.27;;;6.40;99.90;;;;;;5112293;28;20166;-76
2023/04/11 05:48:22;;;;;;;13.33;8.40;;;6.40;99.90;;;;;;5112639;28;20180;-80
2023/04/11 05:50:49;;;;;;;11.87;8.50;;;6.50;99.90;;;;;;5112642;28;20584;-77
2023/04/11 05:53:15;;;;;;;10.83;8.40;;;6.60;99.90;;;;;;5112503;28;20174;-79
2023/04/11 05:55:41;;;;;;;13.30;8.07;;;6.70;99.90;;;;;;5112443;28;20199;-76
2023/04/11 05:58:07;;;;;;;12.57;8.77;;;6.90;99.90;;;;;;5112277;28;20178;-77
2023/04/11 06:00:33;;;;;;;14.23;8.23;;;7.10;99.90;;;;;;5095638;28;20174;-80
2023/04/11 06:03:01;;;;;;;11.33;8.30;;;7.20;99.90;;;;;;5113359;28;20275;-76
2023/04/11 06:05:30;;;;;;;13.70;8.67;;;7.40;99.90;;;;;;5112488;28;20192;-77
2023/04/11 06:07:57;;;;;;;12.50;8.13;;;7.50;99.90;;;;;;5112350;28;20164;-79
2023/04/11 06:10:23;;;;;;;13.13;7.87;;;7.70;99.90;;;;;;5112576;28;20184;-77
2023/04/11 06:12:48;;;;;;;12.37;7.73;;;7.60;99.90;;;;;;5112389;28;20875;-80
2023/04/11 06:15:14;;;;;;;14.97;8.33;;;7.60;99.90;;;;;;5112154;28;20276;-79
2023/04/11 06:17:40;;;;;;;12.20;8.17;;;7.60;99.90;;;;;;5112336;28;20178;-75
2023/04/11 06:20:07;;;;;;;12.87;8.80;;;7.60;99.90;;;;;;5112670;28;20194;-77
2023/04/11 06:22:33;;;;;;;13.30;8.47;;;7.50;99.90;;;;;;5113217;28;20206;-76
2023/04/11 06:24:58;;;;;;;9.63;7.60;;;7.50;99.90;;;;;;5112164;28;20180;-77
2023/04/11 06:27:25;;;;;;;10.73;8.70;;;7.50;99.90;;;;;;5112208;28;20217;-77
2023/04/11 06:29:51;;;;;;;16.07;8.53;;;7.60;99.90;;;;;;5112004;28;20174;-79
2023/04/11 06:32:17;;;;;;;11.23;8.50;;;7.70;99.90;;;;;;5112274;28;20183;-76
2023/04/11 06:34:43;;;;;;;11.57;8.30;;;7.70;99.90;;;;;;5112189;28;20178;-76
2023/04/11 06:37:09;;;;;;;16.47;8.70;;;7.90;99.90;;;;;;5113330;28;20512;-75
2023/04/11 06:39:35;;;;;;;11.47;8.23;;;8.00;99.90;;;;;;5116761;28;20179;-77
2023/04/11 06:42:01;;;;;;;13.33;8.90;;;8.00;99.90;;;;;;5098422;28;20310;-77
2023/04/11 06:44:27;;;;;;;16.63;7.83;;;8.10;99.90;;;;;;5116125;28;20169;-77
2023/04/11 06:46:53;;;;;;;11.50;8.50;;;8.20;99.90;;;;;;5115515;28;20704;-75
2023/04/11 06:49:19;;;;;;;12.73;8.80;;;8.20;99.90;;;;;;5115954;28;20180;-77
2023/04/11 06:51:49;;;;;;;13.37;8.47;;;8.30;99.90;;;;;;5115662;28;20178;-78
2023/04/11 06:54:16;;;;;;;9.87;7.90;;;8.40;99.90;;;;;;5115769;28;20171;-79
2023/04/11 06:56:42;;;;;;;9.63;8.00;;;8.30;99.90;;;;;;5115786;28;20179;-78
2023/04/11 06:59:07;;;;;;;12.23;8.27;;;8.30;99.90;;;;;;5115939;28;20169;-80
2023/04/11 07:01:38;;;;;;;10.77;8.30;;;8.40;99.90;;;;;;5117524;28;20681;-78
2023/04/11 07:04:07;;;;;;;11.37;7.90;;;8.40;99.90;;;;;;5116629;28;20534;-78
2023/04/11 07:06:36;;;;;;;14.03;8.77;;;8.60;99.90;;;;;;5115671;28;20179;-79
2023/04/11 07:09:05;;;;;;;11.93;8.57;;;8.70;99.90;;;;;;5115518;28;20173;-82
2023/04/11 07:11:32;;;;;;;14.83;9.27;;;8.70;99.90;;;;;;5116751;28;20189;-80
2023/04/11 07:13:58;;;;;;;12.37;8.27;;;8.80;99.90;;;;;;5116683;28;20279;-83
2023/04/11 07:16:25;;;;;;;12.87;8.43;;;8.80;99.90;;;;;;5115671;28;20221;-80
2023/04/11 07:18:52;;;;;;;12.40;7.93;;;8.90;99.90;;;;;;5118425;28;20224;-82
2023/04/11 07:21:17;;;;;;;16.03;7.77;;;9.00;99.90;;;;;;5119679;28;20300;-82
2023/04/11 07:23:43;;;;;;;12.07;8.50;;;9.10;99.90;;;;;;5120428;28;20273;-83
2023/04/11 07:26:10;;;;;;;12.97;9.33;;;9.30;99.90;;;;;;5115743;28;20534;-81
2023/04/11 07:28:37;;;;;;;13.07;8.83;;;9.50;99.90;;;;;;5115251;28;20177;-77
2023/04/11 07:31:07;;;;;;;15.53;8.33;;;9.70;99.70;;;;;;5096788;28;20181;-81
2023/04/11 07:33:33;;;;;;;11.10;8.30;;;9.70;99.80;;;;;;5114926;28;20641;-76
2023/04/11 07:35:59;;;;;;;10.13;8.60;;;9.90;99.90;;;;;;5114715;28;20660;-80
2023/04/11 07:38:28;;;;;;;12.03;8.87;;;9.90;99.40;;;;;;5114652;28;20185;-77
2023/04/11 07:40:58;;;;;;;15.53;9.13;;;10.00;99.00;;;;;;5114745;28;20222;-80
2023/04/11 07:43:25;;;;;;;12.93;9.03;;;10.20;98.60;;;;;;5096384;28;20189;-81
2023/04/11 07:45:51;;;;;;;12.80;8.33;;;10.30;98.30;;;;;;5114842;28;20226;-82
2023/04/11 07:48:17;;;;;;;14.87;8.17;;;10.30;98.30;;;;;;5113812;28;20194;-79
2023/04/11 07:50:43;;;;;;;13.17;8.33;;;10.40;98.40;;;;;;5114717;28;20188;-81
2023/04/11 07:53:09;;;;;;;11.57;7.90;;;10.40;98.60;;;;;;5114859;28;20653;-83
2023/04/11 07:55:36;;;;;;;12.40;8.17;;;10.50;98.20;;;;;;5115031;28;20182;-78
2023/04/11 07:58:02;;;;;;;11.07;8.47;;;10.50;98.10;;;;;;5114403;28;20548;-77
2023/04/11 08:00:29;;;;;;;13.20;8.30;;;10.60;98.10;;;;;;5114191;28;20260;-78
2023/04/11 08:02:57;;;;;;;13.17;8.40;;;10.60;98.10;;;;;;5114291;28;20208;-83
2023/04/11 08:05:23;;;;;;;10.90;7.37;;;10.70;98.10;;;;;;5114449;28;20205;-81
2023/04/11 08:07:48;;;;;;;12.60;8.40;;;10.80;97.80;;;;;;5114486;28;20594;-84
2023/04/11 08:10:14;;;;;;;9.73;7.23;;;10.90;97.80;;;;;;5114452;28;20199;-80
2023/04/11 08:12:40;;;;;;;13.37;8.10;;;11.00;97.60;;;;;;5114700;28;20186;-79
2023/04/11 08:15:06;;;;;;;9.67;7.77;;;11.20;97.40;;;;;;5122588;28;20215;-81
2023/04/11 08:17:36;;;;;;;10.53;8.10;;;11.30;97.50;;;;;;5097798;28;20636;-79
2023/04/11 08:20:10;;;;;;;9.40;7.40;;;11.30;97.30;;;;;;5115452;28;20187;-79
2023/04/11 08:22:41;;;;;;;11.03;8.23;;;11.40;96.70;;;;;;5115007;28;20198;-80
2023/04/11 08:25:08;;;;;;;10.17;7.37;;;11.40;96.40;;;;;;5114097;28;20510;-80
2023/04/11 08:27:34;;;;;;;9.60;7.30;;;11.40;96.40;;;;;;5113844;28;20177;-83
2023/04/11 08:30:00;;;;;;;9.87;7.07;;;11.50;96.50;;;;;;5114068;28;20170;-80
2023/04/11 08:32:26;;;;;;;15.23;7.43;;;11.50;96.50;;;;;;5116383;28;20627;-83
2023/04/11 08:34:52;;;;;;;13.40;7.50;;;11.50;96.20;;;;;;5114101;28;20167;-81
2023/04/11 08:37:18;;;;;;;8.10;6.50;;;11.50;96.10;;;;;;5113930;28;20177;-79
2023/04/11 08:39:44;;;;;;;10.20;6.67;;;11.50;96.00;;;;;;5098959;28;20170;-79
2023/04/11 08:42:29;;;;;;;7.83;6.87;;;11.50;96.00;;;;;;5118185;28;20190;-79
2023/04/11 08:44:57;;;;;;;9.53;6.20;;;11.50;95.60;;;;;;5114501;28;20261;-78
2023/04/11 08:47:24;;;;;;;8.30;6.50;;;11.50;95.60;;;;;;5113361;28;20989;-80
2023/04/11 08:49:50;;;;;;;12.40;6.43;;;11.60;95.20;;;;;;5113367;28;20159;-80
2023/04/11 08:52:20;;;;;;;10.67;7.27;;;11.60;95.00;;;;;;5113584;28;20202;-80
2023/04/11 08:54:55;;;;;;;8.57;7.17;;;11.60;95.80;;;;;;5113516;28;20259;-77
2023/04/11 08:57:25;;;;;;;12.40;8.67;;;11.60;96.10;;;;;;5113178;28;20162;-81
2023/04/11 08:59:52;;;;;;;8.27;6.80;;;11.50;96.20;;;;;;5095140;28;20410;-78
2023/04/11 09:02:18;;;;;;;12.00;7.00;;;11.50;96.20;;;;;;5113325;28;20643;-79
2023/04/11 09:04:44;;;;;;;12.10;7.70;;;11.50;96.70;;;;;;5113269;28;20194;-78
2023/04/11 09:07:12;;;;;;;10.13;7.07;;;11.40;96.50;;;;;;5113125;28;20648;-78
2023/04/11 09:09:38;;;;;;;8.60;7.07;;;11.40;96.70;;;;;;5112781;28;20205;-82
2023/04/11 09:12:04;;;;;;;12.37;7.63;;;11.30;96.60;;;;;;5115554;28;20178;-81
2023/04/11 09:14:31;;;;;;;13.47;7.93;;;11.30;96.30;;;;;;5118817;28;20227;-82
2023/04/11 09:17:03;;;;;;;8.77;7.00;;;11.40;96.40;;;;;;5115164;28;20166;-83
2023/04/11 09:19:30;;;;;;;12.43;7.27;;;11.50;96.60;;;;;;5112817;28;20172;-78
2023/04/11 09:21:59;;;;;;;8.77;7.57;;;11.60;96.20;;;;;;5112796;28;20238;-78
2023/04/11 09:24:25;;;;;;;9.30;7.40;;;11.80;95.80;;;;;;5112847;28;20219;-78
2023/04/11 09:27:07;;;;;;;9.57;7.30;;;11.80;95.80;;;;;;5112879;28;20181;-78
2023/04/11 09:29:41;;;;;;;12.67;7.63;;;12.00;95.70;;;;;;5094208;28;20238;-80
2023/04/11 09:32:25;;;;;;;9.30;7.20;;;12.10;96.00;;;;;;5112713;28;20304;-77
2023/04/11 09:34:50;;;;;;;8.07;6.30;;;12.20;96.00;;;;;;5094707;28;20177;-77
2023/04/11 09:37:16;;;;;;;8.10;7.07;;;12.40;95.50;;;;;;5112815;28;20198;-78
2023/04/11 09:39:42;;;;;;;8.00;6.43;;;12.40;95.00;;;;;;5094064;28;20270;-80
2023/04/11 09:42:24;;;;;;;9.73;7.17;;;12.40;95.10;;;;;;5112782;28;20212;-79
2023/04/11 09:44:51;;;;;;;10.30;7.27;;;12.50;95.10;;;;;;5112597;28;20629;-79
2023/04/11 09:47:17;;;;;;;12.00;6.90;;;12.50;94.50;;;;;;5112818;28;20172;-80
2023/04/11 09:49:46;;;;;;;10.30;6.80;;;12.50;94.60;;;;;;5112491;28;20169;-79
2023/04/11 09:52:12;;;;;;;9.83;6.67;;;12.50;94.60;;;;;;5112683;28;20165;-81
2023/04/11 09:54:38;;;;;;;10.83;7.60;;;12.50;94.80;;;;;;5112768;28;20193;-81
2023/04/11 09:57:04;;;;;;;9.27;7.37;;;12.60;94.80;;;;;;5113382;28;20208;-79
2023/04/11 09:59:34;;;;;;;9.53;7.00;;;12.80;94.50;;;;;;5113250;28;20345;-78
2023/04/11 10:02:00;;;;;;;11.60;7.13;;;12.90;94.50;;;;;;5112674;28;20667;-78
2023/04/11 10:04:27;;;;;;;11.63;7.03;;;12.90;94.90;;;;;;5112838;28;20282;-77
2023/04/11 10:07:07;;;;;;;10.90;7.47;;;13.00;94.90;;;;;;5112903;28;20173;-78
2023/04/11 10:09:41;;;;;;;10.80;6.40;;;13.00;94.80;;;;;;5115842;28;20162;-79
2023/04/11 10:12:07;;;;;;;10.20;7.43;;;13.10;94.90;;;;;;5113635;28;20154;-80
2023/04/11 10:14:36;;;;;;;8.00;6.40;;;13.10;94.80;;;;;;5099295;28;20221;-80
2023/04/11 10:17:14;;;;;;;8.80;7.27;;;13.10;94.50;;;;;;5117505;28;20176;-79
2023/04/11 10:19:40;;;;;;;9.30;6.87;;;13.10;93.90;;;;;;5116222;28;20253;-79
2023/04/11 10:22:06;;;;;;;9.40;7.17;;;13.10;93.90;;;;;;5116173;28;20684;-78
2023/04/11 10:24:32;;;;;;;12.97;7.07;;;13.10;94.20;;;;;;5116358;28;20226;-79
2023/04/11 10:27:04;;;;;;;8.90;6.77;;;13.10;94.20;;;;;;5097835;28;20570;-79
2023/04/11 10:32:14;;;;;;;8.87;6.50;;;13.20;95.10;;;;;;5116212;28;20177;-79
2023/04/11 10:34:49;;;;;;;8.23;5.97;;;13.30;95.10;;;;;;5098512;28;20567;-84
2023/04/11 10:37:31;;;;;;;8.87;6.50;;;13.50;95.00;;;;;;5098124;28;20664;-79
2023/04/11 10:39:59;;;;;;;7.07;5.90;;;13.70;94.80;;;;;;5097536;28;20261;-77
2023/04/11 10:42:33;;;;;;;8.40;6.13;;;13.80;94.60;;;;;;5097643;28;20569;-79
2023/04/11 10:45:24;;;;;;;6.73;5.60;;;14.10;94.70;;;;;;5115993;28;20210;-82
2023/04/11 10:47:50;;;;;;;8.30;6.10;;;14.30;94.40;;;;;;5097842;28;20176;-82
2023/04/11 10:50:36;;;;;;;6.73;6.03;;;14.50;94.20;;;;;;5115750;28;20173;-83
2023/04/11 10:53:07;;;;;;;6.30;5.67;;;14.50;93.90;;;;;;5116297;28;20162;-83
2023/04/11 10:55:51;;;;;;;6.30;5.70;;;14.70;94.20;;;;;;5116280;28;20180;-83
2023/04/11 10:58:18;;;;;;;16.37;5.77;;;14.80;93.60;;;;;;5116958;28;20160;-77
2023/04/11 11:00:50;;;;;;;7.63;5.73;;;14.90;93.60;;;;;;5119473;28;20580;-80
2023/04/11 11:03:24;;;;;;;7.27;5.90;;;15.10;93.20;;;;;;5123229;28;20198;-81
2023/04/11 11:06:10;;;;;;;8.97;6.17;;;15.30;93.20;;;;;;5098650;28;20219;-83
2023/04/11 11:08:40;;;;;;;6.13;5.53;;;15.50;92.80;;;;;;5115190;28;20213;-85
2023/04/11 11:11:08;;;;;;;6.17;5.57;;;15.40;92.70;;;;;;5116050;28;20154;-83
2023/04/11 11:13:46;;;;;;;6.80;5.40;;;15.30;92.70;;;;;;5115820;28;20214;-80
2023/04/11 11:16:18;;;;;;;6.20;5.60;;;15.30;93.20;;;;;;5116792;28;20181;-83
2023/04/11 11:18:46;;;;;;;9.40;5.27;;;15.30;93.00;;;;;;5101854;28;20205;-81
2023/04/11 11:21:14;;;;;;;6.43;5.83;;;15.30;92.80;;;;;;5097678;28;20205;-79
2023/04/11 11:23:52;;;;;;;7.23;5.83;;;15.30;92.90;;;;;;5114968;28;20184;-77
2023/04/11 11:26:17;;;;;;;6.13;5.50;;;15.40;93.10;;;;;;5117074;28;20151;-80
2023/04/11 11:28:47;;;;;;;6.90;5.63;;;15.60;93.50;;;;;;5115170;28;20182;-81
2023/04/11 11:31:13;;;;;;;6.03;5.43;;;15.80;93.10;;;;;;5115327;28;20182;-80
2023/04/11 11:33:43;;;;;;;6.20;5.53;;;15.90;92.90;;;;;;5115242;28;20178;-80
2023/04/11 11:36:10;;;;;;;6.33;5.60;;;16.00;92.90;;;;;;5117349;28;20177;-80
2023/04/11 11:38:36;;;;;;;6.33;5.73;;;16.10;91.60;;;;;;5117306;28;20180;-78
2023/04/11 11:41:02;;;;;;;8.07;6.00;;;16.00;91.60;;;;;;5115504;28;20955;-78
2023/04/11 11:43:28;;;;;;;7.60;6.47;;;16.10;91.40;;;;;;5114927;28;20215;-81
2023/04/11 11:46:13;;;;;;;6.83;5.90;;;16.00;91.70;;;;;;5115035;28;20166;-81
2023/04/11 11:48:42;;;;;;;6.70;5.43;;;15.90;91.80;;;;;;5115236;28;20174;-82
2023/04/11 11:51:08;;;;;;;8.20;6.90;;;15.90;91.10;;;;;;5097375;28;20645;-82
2023/04/11 11:53:33;;;;;;;7.13;5.70;;;15.80;90.90;;;;;;5099262;28;20170;-78
2023/04/11 11:55:59;;;;;;;7.30;5.90;;;15.70;91.00;;;;;;5116755;28;20174;-81
2023/04/11 11:58:26;;;;;;;5.93;5.33;;;15.70;90.90;;;;;;5114782;28;20189;-81
2023/04/11 12:00:52;;;;;;;6.37;5.30;;;15.60;91.00;;;;;;5119922;28;20246;-79
2023/04/11 12:03:28;;;;;;;6.60;5.60;;;15.70;91.10;;;;;;5119401;28;20178;-79
2023/04/11 12:05:55;;;;;;;6.23;5.60;;;15.90;91.30;;;;;;5117053;28;20170;-80
2023/04/11 12:08:23;;;;;;;6.60;5.87;;;16.10;91.60;;;;;;5114621;28;20664;-83
2023/04/11 12:10:50;;;;;;;8.10;5.67;;;16.30;91.50;;;;;;5114495;28;20216;-81
2023/04/11 12:13:24;;;;;;;7.63;5.80;;;16.30;91.30;;;;;;5114306;28;20182;-81
2023/04/11 12:15:52;;;;;;;6.30;5.67;;;16.50;91.50;;;;;;5114343;28;20264;-84
2023/04/11 12:18:25;;;;;;;6.47;5.63;;;16.60;91.70;;;;;;5114413;28;20173;-83
2023/04/11 12:20:51;;;;;;;8.03;5.40;;;16.70;91.70;;;;;;5114410;28;20169;-85
2023/04/11 12:23:17;;;;;;;8.30;5.07;;;16.80;91.00;;;;;;5114796;28;20181;-79
2023/04/11 12:25:43;;;;;;;7.03;5.77;;;16.80;91.10;;;;;;5114740;28;20614;-83
2023/04/11 12:28:10;;;;;;;6.00;5.50;;;16.90;91.00;;;;;;5114180;28;20180;-80
2023/04/11 12:30:36;;;;;;;6.63;5.37;;;16.90;90.80;;;;;;5114148;28;20169;-84
2023/04/11 12:33:02;;;;;;;5.77;5.07;;;16.90;90.70;;;;;;5114641;28;20182;-82
2023/04/11 12:35:28;;;;;;;6.53;5.07;;;16.90;90.50;;;;;;5097335;28;20186;-80
2023/04/11 12:37:55;;;;;;;6.30;5.47;;;16.80;88.80;;;;;;5115216;28;20180;-80
2023/04/11 12:40:21;;;;;;;5.83;5.23;;;16.80;89.60;;;;;;5113981;28;20644;-78
2023/04/11 12:42:48;;;;;;;5.97;5.37;;;16.80;90.20;;;;;;5113808;28;20211;-79
2023/04/11 12:45:17;;;;;;;6.47;5.57;;;16.90;88.80;;;;;;5113582;28;20622;-77
2023/04/11 12:47:43;;;;;;;6.47;5.63;;;16.90;88.20;;;;;;5113516;28;20177;-80
2023/04/11 12:50:09;;;;;;;9.33;5.47;;;16.90;88.50;;;;;;5113368;28;20235;-79
2023/04/11 12:52:36;;;;;;;5.93;5.03;;;16.80;89.70;;;;;;5113805;28;20179;-78
2023/04/11 12:55:03;;;;;;;5.60;5.00;;;16.90;89.50;;;;;;5095034;28;20178;-79